Time;durP1;ratioP1;P1;durP2;ratioP2;P2;SDS_P1;SDS_P2;PMS_P1;PMS_P2;Temp;Humidity;BMP_temperature;BMP_pressure;BME280_temperature;BME280_humidity;BME280_pressure;Samples;Min_cycle;Max_cycle;Signal;HPM_P1;HPM_P2
2022/09/03 00:02:07;;;;;;;0.10;0.10;;;16.60;99.90;;;;;;4890043;29;20972;-85
2022/09/03 00:04:56;;;;;;;0.10;0.10;;;16.60;99.90;;;;;;4862740;29;20466;-85
2022/09/03 00:07:48;;;;;;;0.10;0.10;;;16.60;99.90;;;;;;4884260;29;20481;-85
2022/09/03 00:10:37;;;;;;;0.10;0.10;;;16.60;99.90;;;;;;4882389;29;20457;-85
2022/09/03 00:13:06;;;;;;;0.10;0.10;;;16.60;99.90;;;;;;4890331;29;20453;-86
2022/09/03 00:15:34;;;;;;;0.10;0.10;;;16.60;99.90;;;;;;4891228;29;20449;-87
2022/09/03 00:18:11;;;;;;;0.10;0.10;;;16.60;99.90;;;;;;4886710;29;21068;-86
2022/09/03 00:20:50;;;;;;;0.10;0.10;;;16.60;99.90;;;;;;4890613;29;20540;-86
2022/09/03 00:23:21;;;;;;;0.10;0.10;;;16.70;99.90;;;;;;4893531;29;20468;-84
2022/09/03 00:25:57;;;;;;;0.10;0.10;;;16.60;99.90;;;;;;4888783;29;20449;-84
2022/09/03 00:28:28;;;;;;;0.10;0.10;;;16.60;99.90;;;;;;4890782;29;20444;-86
2022/09/03 00:31:14;;;;;;;0.10;0.10;;;16.60;99.90;;;;;;4897460;29;20457;-85
2022/09/03 00:33:43;;;;;;;0.10;0.10;;;16.60;99.90;;;;;;4889123;29;20969;-86
2022/09/03 00:36:23;;;;;;;0.10;0.10;;;16.50;99.90;;;;;;4887747;29;20472;-84
2022/09/03 00:38:49;;;;;;;0.10;0.10;;;16.60;99.90;;;;;;4883540;29;20472;-85
2022/09/03 00:41:32;;;;;;;0.10;0.10;;;16.60;99.90;;;;;;4891060;29;20857;-85
2022/09/03 00:44:32;;;;;;;0.10;0.10;;;16.60;99.90;;;;;;4889811;29;20449;-85
2022/09/03 00:47:17;;;;;;;0.10;0.10;;;16.60;99.90;;;;;;4890780;29;20793;-87
2022/09/03 00:50:03;;;;;;;0.10;0.10;;;16.50;99.90;;;;;;4883292;29;20540;-87
2022/09/03 00:53:00;;;;;;;0.10;0.10;;;16.50;99.90;;;;;;4886176;29;20739;-83
2022/09/03 00:55:25;;;;;;;0.10;0.10;;;16.50;99.90;;;;;;4873272;29;20457;-85
2022/09/03 00:58:01;;;;;;;0.10;0.10;;;16.50;99.90;;;;;;4888358;29;20918;-86
2022/09/03 01:00:27;;;;;;;0.10;0.10;;;16.50;99.90;;;;;;4890445;29;20188;-85
2022/09/03 01:03:04;;;;;;;0.10;0.10;;;16.40;99.90;;;;;;4890453;29;20469;-86
2022/09/03 01:05:51;;;;;;;0.10;0.10;;;16.40;99.90;;;;;;4903812;29;20448;-86
2022/09/03 01:08:37;;;;;;;0.10;0.10;;;16.40;99.90;;;;;;4889223;29;20449;-85
2022/09/03 01:11:10;;;;;;;0.10;0.10;;;16.30;99.90;;;;;;4891710;29;20457;-86
2022/09/03 01:13:42;;;;;;;0.10;0.10;;;16.40;99.90;;;;;;4886278;29;20536;-84
2022/09/03 01:16:37;;;;;;;0.10;0.10;;;16.40;99.90;;;;;;4887162;29;20524;-84
2022/09/03 01:19:27;;;;;;;0.10;0.10;;;16.30;99.90;;;;;;4884517;29;20493;-85
2022/09/03 01:22:34;;;;;;;0.10;0.10;;;16.40;99.90;;;;;;4887990;29;20437;-85
2022/09/03 01:25:30;;;;;;;0.10;0.10;;;16.30;99.90;;;;;;4891568;29;20494;-84
2022/09/03 01:28:21;;;;;;;0.10;0.10;;;16.40;99.90;;;;;;4890709;29;20449;-87
2022/09/03 01:31:25;;;;;;;0.10;0.10;;;16.40;99.90;;;;;;4887683;29;21162;-84
2022/09/03 01:34:06;;;;;;;0.10;0.10;;;16.30;99.90;;;;;;4869692;29;20482;-84
2022/09/03 01:36:49;;;;;;;0.10;0.10;;;16.40;99.90;;;;;;4884614;29;20465;-85
2022/09/03 01:39:46;;;;;;;0.10;0.10;;;16.40;99.90;;;;;;4891772;29;20586;-86
2022/09/03 01:42:31;;;;;;;0.10;0.10;;;16.40;99.90;;;;;;4886735;29;20456;-84
2022/09/03 01:45:20;;;;;;;0.10;0.10;;;16.30;99.90;;;;;;4885456;29;20954;-86
2022/09/03 01:47:54;;;;;;;0.10;0.10;;;16.40;99.90;;;;;;4887842;29;20544;-85
2022/09/03 01:50:41;;;;;;;0.10;0.10;;;16.30;99.90;;;;;;4903106;29;20512;-86
2022/09/03 01:53:25;;;;;;;0.10;0.10;;;16.30;99.90;;;;;;4889217;29;20471;-85
2022/09/03 01:56:32;;;;;;;0.10;0.10;;;16.20;99.90;;;;;;4891989;29;20456;-84
2022/09/03 01:59:07;;;;;;;0.10;0.10;;;16.20;99.90;;;;;;4893641;29;20464;-85
2022/09/03 02:01:40;;;;;;;0.10;0.10;;;16.20;99.90;;;;;;4891744;29;20605;-85
2022/09/03 02:04:22;;;;;;;0.10;0.10;;;16.20;99.90;;;;;;4904545;29;20788;-85
2022/09/03 02:06:52;;;;;;;0.10;0.10;;;16.10;99.90;;;;;;4882254;29;20448;-85
2022/09/03 02:09:19;;;;;;;0.10;0.10;;;16.10;99.90;;;;;;4893911;29;20445;-85
2022/09/03 02:11:54;;;;;;;0.10;0.10;;;16.10;99.90;;;;;;4893065;29;20453;-85
2022/09/03 02:14:20;;;;;;;0.10;0.10;;;16.20;99.90;;;;;;4896677;29;20535;-86
2022/09/03 02:16:45;;;;;;;0.10;0.10;;;16.10;99.90;;;;;;4891409;29;20583;-85
2022/09/03 02:19:15;;;;;;;0.10;0.10;;;16.10;99.90;;;;;;4890390;29;20233;-84
2022/09/03 02:21:55;;;;;;;0.10;0.10;;;16.10;99.90;;;;;;4887598;29;20224;-85
2022/09/03 02:24:21;;;;;;;0.10;0.10;;;16.10;99.90;;;;;;4908094;29;20463;-86
2022/09/03 02:26:46;;;;;;;0.10;0.10;;;16.10;99.90;;;;;;4891761;29;20528;-85
2022/09/03 02:29:16;;;;;;;0.10;0.10;;;16.10;99.90;;;;;;4891003;29;20561;-84
2022/09/03 02:31:41;;;;;;;0.10;0.10;;;16.10;99.90;;;;;;4887036;29;20197;-85
2022/09/03 02:34:07;;;;;;;0.10;0.10;;;16.10;99.90;;;;;;4890903;29;20863;-86
2022/09/03 02:36:41;;;;;;;0.10;0.10;;;16.10;99.90;;;;;;4907576;29;20189;-86
2022/09/03 02:39:06;;;;;;;0.10;0.10;;;16.10;99.90;;;;;;4891797;29;20232;-86
2022/09/03 02:41:33;;;;;;;0.10;0.10;;;16.00;99.90;;;;;;4893234;29;20480;-85
2022/09/03 02:44:10;;;;;;;0.10;0.10;;;16.00;99.90;;;;;;4892889;29;20245;-86
2022/09/03 02:46:47;;;;;;;0.10;0.10;;;15.90;99.90;;;;;;4893914;29;20528;-85
2022/09/03 02:49:12;;;;;;;0.10;0.10;;;15.80;99.90;;;;;;4893645;29;20527;-86
2022/09/03 02:51:41;;;;;;;0.10;0.10;;;15.80;99.90;;;;;;4886576;29;20445;-84
2022/09/03 02:54:07;;;;;;;0.10;0.10;;;15.80;99.90;;;;;;4894697;29;20606;-85
2022/09/03 02:56:33;;;;;;;0.10;0.10;;;15.80;99.90;;;;;;4891572;29;20544;-86
2022/09/03 02:58:59;;;;;;;0.10;0.10;;;15.80;99.90;;;;;;4894252;29;21296;-87
2022/09/03 03:01:25;;;;;;;0.10;0.10;;;15.70;99.90;;;;;;4890848;29;20233;-85
2022/09/03 03:03:51;;;;;;;0.10;0.10;;;15.60;99.90;;;;;;4892870;29;20729;-85
2022/09/03 03:06:19;;;;;;;0.10;0.10;;;15.60;99.90;;;;;;4893877;29;20220;-85
2022/09/03 03:08:45;;;;;;;0.10;0.10;;;15.50;99.90;;;;;;4895741;29;20452;-85
2022/09/03 03:11:12;;;;;;;0.10;0.10;;;15.60;99.90;;;;;;4890295;29;20500;-85
2022/09/03 03:13:38;;;;;;;0.10;0.10;;;15.50;99.90;;;;;;4891751;29;20470;-85
2022/09/03 03:16:08;;;;;;;0.10;0.10;;;15.50;99.90;;;;;;4886929;29;20528;-85
2022/09/03 03:18:33;;;;;;;0.10;0.10;;;15.50;99.90;;;;;;4893486;29;20244;-85
2022/09/03 03:21:06;;;;;;;0.10;0.10;;;15.40;99.90;;;;;;4893370;29;21379;-84
2022/09/03 03:23:33;;;;;;;0.10;0.10;;;15.40;99.90;;;;;;4890052;29;20189;-83
2022/09/03 03:26:08;;;;;;;0.10;0.10;;;15.20;99.90;;;;;;4902010;29;20443;-83
2022/09/03 03:28:35;;;;;;;0.10;0.10;;;15.20;99.90;;;;;;4889090;29;20472;-85
2022/09/03 03:31:12;;;;;;;0.10;0.10;;;15.20;99.90;;;;;;4889096;29;20448;-86
2022/09/03 03:33:38;;;;;;;0.10;0.10;;;15.20;99.90;;;;;;4881568;29;20504;-85
2022/09/03 03:36:05;;;;;;;0.10;0.10;;;15.00;99.90;;;;;;4887379;29;20814;-85
2022/09/03 03:38:31;;;;;;;0.10;0.10;;;15.00;99.90;;;;;;4886928;29;20509;-85
2022/09/03 03:40:57;;;;;;;0.10;0.10;;;15.10;99.90;;;;;;4888962;29;20449;-85
2022/09/03 03:43:22;;;;;;;0.10;0.10;;;15.00;99.90;;;;;;4886668;29;20906;-84
2022/09/03 03:45:58;;;;;;;0.10;0.10;;;14.90;99.90;;;;;;4891987;29;20705;-85
2022/09/03 03:48:25;;;;;;;0.10;0.10;;;14.90;99.90;;;;;;4889019;29;20244;-86
2022/09/03 03:50:51;;;;;;;0.10;0.10;;;14.80;99.90;;;;;;4887484;29;20775;-86
2022/09/03 03:53:17;;;;;;;0.10;0.10;;;14.80;99.90;;;;;;4888274;29;20477;-85
2022/09/03 03:55:42;;;;;;;0.10;0.10;;;14.80;99.90;;;;;;4891803;29;20446;-85
2022/09/03 03:58:08;;;;;;;0.10;0.10;;;14.70;99.90;;;;;;4889754;29;20224;-84
2022/09/03 04:00:36;;;;;;;0.10;0.10;;;14.70;99.90;;;;;;4890278;29;20276;-84
2022/09/03 04:03:05;;;;;;;0.10;0.10;;;14.50;99.90;;;;;;4888867;29;20224;-84
2022/09/03 04:05:30;;;;;;;0.10;0.10;;;14.40;99.90;;;;;;4887915;29;20469;-85
2022/09/03 04:08:01;;;;;;;0.10;0.10;;;14.40;99.90;;;;;;4889229;29;20457;-83
2022/09/03 04:10:26;;;;;;;0.10;0.10;;;14.10;99.90;;;;;;4891886;29;20197;-84
2022/09/03 04:12:53;;;;;;;0.10;0.10;;;14.10;99.90;;;;;;4891041;29;20556;-84
2022/09/03 04:15:19;;;;;;;0.10;0.10;;;14.20;99.90;;;;;;4888857;29;20193;-84
2022/09/03 04:17:44;;;;;;;0.10;0.10;;;14.20;99.90;;;;;;4893644;29;20481;-84
2022/09/03 04:20:10;;;;;;;0.10;0.10;;;14.10;99.90;;;;;;4889101;29;20430;-85
2022/09/03 04:22:35;;;;;;;0.10;0.10;;;14.10;99.90;;;;;;4891931;29;20689;-85
2022/09/03 04:25:01;;;;;;;0.10;0.10;;;14.00;99.90;;;;;;4893550;29;20272;-85
2022/09/03 04:27:26;;;;;;;0.10;0.10;;;13.90;99.90;;;;;;4891339;29;20848;-84
2022/09/03 04:29:52;;;;;;;0.10;0.10;;;14.00;99.90;;;;;;4888664;29;20193;-84
2022/09/03 04:35:15;;;;;;;0.10;0.10;;;13.80;99.90;;;;;;4858411;29;20272;-85
2022/09/03 04:37:40;;;;;;;0.10;0.10;;;13.80;99.90;;;;;;4890221;29;20496;-84
2022/09/03 04:40:06;;;;;;;0.10;0.10;;;13.90;99.90;;;;;;4890267;29;20249;-84
2022/09/03 04:42:32;;;;;;;0.10;0.10;;;14.10;99.90;;;;;;4888325;29;20224;-85
2022/09/03 04:44:58;;;;;;;0.10;0.10;;;14.00;99.90;;;;;;4887683;29;20484;-84
2022/09/03 04:47:23;;;;;;;0.10;0.10;;;13.80;99.90;;;;;;4890838;29;20221;-84
2022/09/03 04:49:49;;;;;;;0.10;0.10;;;13.80;99.90;;;;;;4890070;29;20301;-85
2022/09/03 04:52:14;;;;;;;0.10;0.10;;;13.70;99.90;;;;;;4888014;29;20228;-85
2022/09/03 04:54:39;;;;;;;0.10;0.10;;;13.60;99.90;;;;;;4890570;29;20658;-84
2022/09/03 04:57:05;;;;;;;0.10;0.10;;;13.50;99.90;;;;;;4890810;29;20220;-84
2022/09/03 04:59:30;;;;;;;0.10;0.10;;;13.60;99.90;;;;;;4891179;29;21005;-85
2022/09/03 05:01:56;;;;;;;0.10;0.10;;;13.50;99.90;;;;;;4888879;29;20197;-85
2022/09/03 05:04:21;;;;;;;0.10;0.10;;;13.60;99.90;;;;;;4890822;29;20517;-84
2022/09/03 05:06:47;;;;;;;0.10;0.10;;;13.80;99.90;;;;;;4885964;29;20542;-84
2022/09/03 05:09:13;;;;;;;0.10;0.10;;;13.60;99.90;;;;;;4888079;29;20193;-85
2022/09/03 05:11:38;;;;;;;0.10;0.10;;;13.60;99.90;;;;;;4881670;29;20205;-84
2022/09/03 05:14:04;;;;;;;0.10;0.10;;;13.60;99.90;;;;;;4890871;29;20265;-84
2022/09/03 05:16:30;;;;;;;0.10;0.10;;;13.70;99.90;;;;;;4888164;29;20275;-85
2022/09/03 05:19:02;;;;;;;0.10;0.10;;;13.70;99.90;;;;;;4893982;29;21104;-85
2022/09/03 05:21:28;;;;;;;0.10;0.10;;;13.60;99.90;;;;;;4888473;29;20189;-84
2022/09/03 05:23:54;;;;;;;0.10;0.10;;;13.60;99.90;;;;;;4888086;29;20508;-85
2022/09/03 05:26:25;;;;;;;0.10;0.10;;;13.70;99.90;;;;;;4891611;29;20449;-86
2022/09/03 05:29:00;;;;;;;0.10;0.10;;;13.70;99.90;;;;;;4892427;29;21676;-84
2022/09/03 05:31:30;;;;;;;0.10;0.10;;;13.90;99.90;;;;;;4888160;29;20453;-84
2022/09/03 05:33:58;;;;;;;0.10;0.10;;;14.00;99.90;;;;;;4911067;29;20449;-84
2022/09/03 05:36:26;;;;;;;0.10;0.10;;;14.00;99.90;;;;;;4901621;29;20444;-84
2022/09/03 05:38:55;;;;;;;0.10;0.10;;;14.10;99.90;;;;;;4898707;29;20489;-85
2022/09/03 05:41:22;;;;;;;0.10;0.10;;;14.30;99.90;;;;;;4900311;29;20810;-83
2022/09/03 05:43:55;;;;;;;0.10;0.10;;;14.40;99.90;;;;;;4911037;29;20445;-84
2022/09/03 05:46:30;;;;;;;0.10;0.10;;;14.50;99.90;;;;;;4899832;29;20805;-84
2022/09/03 05:48:57;;;;;;;0.10;0.10;;;14.70;99.90;;;;;;4896267;29;20456;-84
2022/09/03 05:51:23;;;;;;;0.10;0.10;;;14.80;99.90;;;;;;4897184;29;20452;-84
2022/09/03 05:53:48;;;;;;;0.10;0.10;;;14.80;99.90;;;;;;4895353;29;20467;-83
2022/09/03 05:56:16;;;;;;;0.10;0.10;;;14.90;99.90;;;;;;4893677;29;20201;-83
2022/09/03 05:58:44;;;;;;;0.10;0.10;;;14.90;99.90;;;;;;4896553;29;20785;-83
2022/09/03 06:01:12;;;;;;;0.10;0.10;;;14.90;99.90;;;;;;4899435;29;21534;-84
2022/09/03 06:03:38;;;;;;;0.10;0.10;;;14.90;99.90;;;;;;4910027;29;20871;-84
2022/09/03 06:06:04;;;;;;;0.10;0.10;;;15.00;99.90;;;;;;4895858;29;20445;-84
2022/09/03 06:08:30;;;;;;;0.10;0.10;;;15.10;99.90;;;;;;4898366;29;20178;-85
2022/09/03 06:11:00;;;;;;;0.10;0.10;;;15.20;99.90;;;;;;4895660;29;20508;-82
2022/09/03 06:13:25;;;;;;;0.10;0.10;;;15.20;99.90;;;;;;4896606;29;20661;-83
2022/09/03 06:15:59;;;;;;;0.10;0.10;;;15.20;99.90;;;;;;4910983;29;20527;-84
2022/09/03 06:18:26;;;;;;;0.10;0.10;;;15.30;99.90;;;;;;4903763;29;20672;-84
2022/09/03 06:21:00;;;;;;;0.10;0.10;;;15.40;99.90;;;;;;4896112;29;20476;-84
2022/09/03 06:23:26;;;;;;;0.10;0.10;;;15.50;99.90;;;;;;4897534;29;20983;-85
2022/09/03 06:26:06;;;;;;;0.10;0.10;;;15.50;99.90;;;;;;4895445;29;20445;-84
2022/09/03 06:28:37;;;;;;;0.10;0.10;;;15.60;99.90;;;;;;4895587;29;20448;-85
2022/09/03 06:31:05;;;;;;;0.10;0.10;;;15.60;99.90;;;;;;4905285;29;20963;-82
2022/09/03 06:33:32;;;;;;;0.10;0.10;;;15.80;99.90;;;;;;4909068;29;20461;-87
2022/09/03 06:35:59;;;;;;;0.10;0.10;;;15.90;99.90;;;;;;4896993;29;20969;-86
2022/09/03 06:38:27;;;;;;;0.10;0.10;;;15.80;99.90;;;;;;4888022;29;20543;-84
2022/09/03 06:40:54;;;;;;;0.10;0.10;;;16.00;99.90;;;;;;4895583;29;20477;-83
2022/09/03 06:43:21;;;;;;;0.10;0.10;;;15.90;99.90;;;;;;4909617;29;20460;-84
2022/09/03 06:45:56;;;;;;;0.10;0.10;;;16.00;99.90;;;;;;4892050;29;20460;-85
2022/09/03 06:48:22;;;;;;;0.10;0.10;;;16.20;99.90;;;;;;4909786;29;20464;-87
2022/09/03 06:51:00;;;;;;;0.10;0.10;;;16.30;99.90;;;;;;4890623;29;20445;-85
2022/09/03 06:53:27;;;;;;;0.10;0.10;;;16.30;99.90;;;;;;4895346;29;20193;-84
2022/09/03 06:56:01;;;;;;;0.10;0.10;;;16.50;99.90;;;;;;4892889;29;20524;-85
2022/09/03 06:58:31;;;;;;;0.10;0.10;;;16.60;99.90;;;;;;4893498;29;20583;-82
2022/09/03 07:01:06;;;;;;;0.10;0.10;;;16.70;99.90;;;;;;4891849;29;20524;-83
2022/09/03 07:03:32;;;;;;;0.10;0.10;;;16.80;99.90;;;;;;4895582;29;21044;-84
2022/09/03 07:06:08;;;;;;;0.10;0.10;;;16.60;99.90;;;;;;4893694;29;20451;-84
2022/09/03 07:08:34;;;;;;;0.10;0.10;;;16.50;99.90;;;;;;4908699;29;20464;-84
2022/09/03 07:11:08;;;;;;;0.10;0.10;;;16.60;99.90;;;;;;4893207;29;20449;-84
2022/09/03 07:13:42;;;;;;;0.10;0.10;;;16.60;99.90;;;;;;4895699;29;20460;-85
2022/09/03 07:16:17;;;;;;;0.10;0.10;;;16.50;99.90;;;;;;4908826;29;20445;-85
2022/09/03 07:18:43;;;;;;;0.10;0.10;;;16.70;99.90;;;;;;4893844;29;20539;-84
2022/09/03 07:21:11;;;;;;;0.10;0.10;;;16.90;99.90;;;;;;4895502;29;20544;-83
2022/09/03 07:23:38;;;;;;;0.10;0.10;;;17.10;99.90;;;;;;4896628;29;20510;-85
2022/09/03 07:26:09;;;;;;;0.10;0.10;;;17.30;99.90;;;;;;4895037;29;20921;-85
2022/09/03 07:28:36;;;;;;;0.10;0.10;;;17.40;99.90;;;;;;4893857;29;20453;-83
2022/09/03 07:31:09;;;;;;;0.10;0.10;;;17.40;99.90;;;;;;4898978;29;20441;-84
2022/09/03 07:33:34;;;;;;;0.10;0.10;;;17.40;99.90;;;;;;4891589;29;20548;-85
2022/09/03 07:36:05;;;;;;;0.10;0.10;;;17.50;99.90;;;;;;4896310;29;20552;-84
2022/09/03 07:38:31;;;;;;;0.10;0.10;;;17.80;99.90;;;;;;4895119;29;20279;-83
2022/09/03 07:41:01;;;;;;;0.10;0.10;;;18.10;99.90;;;;;;4895216;29;20481;-83
2022/09/03 07:43:29;;;;;;;0.10;0.10;;;18.30;99.90;;;;;;4893165;29;20544;-85
2022/09/03 07:45:55;;;;;;;0.10;0.10;;;18.50;99.90;;;;;;4892998;29;20505;-84
2022/09/03 07:48:22;;;;;;;0.10;0.00;;;18.60;99.90;;;;;;4893769;29;20816;-85
2022/09/03 07:50:47;;;;;;;0.10;0.10;;;18.80;99.90;;;;;;4893249;29;20442;-83
2022/09/03 07:53:15;;;;;;;0.10;0.10;;;19.00;99.90;;;;;;4900402;29;20445;-83
2022/09/03 07:55:43;;;;;;;0.10;0.10;;;19.10;99.90;;;;;;4895243;29;20204;-84
2022/09/03 07:58:10;;;;;;;0.10;0.00;;;19.30;99.90;;;;;;4894352;29;20543;-83
2022/09/03 08:00:35;;;;;;;0.10;0.10;;;19.30;99.90;;;;;;4890339;29;20449;-85
2022/09/03 08:03:05;;;;;;;0.10;0.10;;;19.30;99.90;;;;;;4895304;29;20461;-86
2022/09/03 08:05:32;;;;;;;0.10;0.10;;;19.50;99.90;;;;;;4899528;29;20601;-83
2022/09/03 08:08:00;;;;;;;0.10;0.10;;;19.50;99.90;;;;;;4894503;29;20468;-85
2022/09/03 08:10:29;;;;;;;0.10;0.00;;;19.60;99.90;;;;;;4896235;29;20417;-82
2022/09/03 08:13:04;;;;;;;0.10;0.00;;;19.70;99.90;;;;;;5126965;27;20559;-83
2022/09/03 08:15:31;;;;;;;0.10;0.10;;;19.60;99.90;;;;;;5108220;28;20487;-84
2022/09/03 08:17:58;;;;;;;0.10;0.00;;;19.60;99.90;;;;;;5124446;28;20190;-85
2022/09/03 08:20:23;;;;;;;0.10;0.10;;;19.80;99.90;;;;;;5121264;27;20441;-84
2022/09/03 08:22:50;;;;;;;0.10;0.00;;;20.10;99.90;;;;;;5125945;27;20444;-84
2022/09/03 08:25:15;;;;;;;0.10;0.10;;;20.20;99.90;;;;;;5124897;28;20633;-83
2022/09/03 08:27:41;;;;;;;0.10;0.00;;;20.20;99.90;;;;;;5114236;28;20474;-86
2022/09/03 08:30:10;;;;;;;0.10;0.00;;;20.30;99.90;;;;;;5120443;28;20597;-82
2022/09/03 08:32:37;;;;;;;0.10;0.00;;;20.20;99.90;;;;;;5107400;28;20322;-84
2022/09/03 08:35:05;;;;;;;0.10;0.00;;;20.30;99.90;;;;;;5127266;28;20448;-83
2022/09/03 08:37:31;;;;;;;0.10;0.00;;;20.30;99.90;;;;;;5128284;28;20515;-82
2022/09/03 08:39:59;;;;;;;0.10;0.00;;;20.50;99.90;;;;;;5109997;28;20936;-85
2022/09/03 08:42:45;;;;;;;0.10;0.07;;;20.70;99.90;;;;;;5128409;28;21286;-85
2022/09/03 08:45:15;;;;;;;0.10;0.00;;;20.80;99.90;;;;;;5121174;28;20456;-85
2022/09/03 08:47:45;;;;;;;0.10;0.00;;;20.90;99.90;;;;;;5107955;28;20437;-88
2022/09/03 08:50:25;;;;;;;0.10;0.10;;;21.10;99.90;;;;;;5106802;27;20441;-85
2022/09/03 08:53:08;;;;;;;0.10;0.10;;;21.00;99.90;;;;;;5126353;28;20477;-88
2022/09/03 08:55:57;;;;;;;0.10;0.00;;;21.10;99.90;;;;;;5125878;28;20468;-85
2022/09/03 08:58:27;;;;;;;0.10;0.07;;;21.20;99.90;;;;;;5119537;27;20441;-86
2022/09/03 09:01:01;;;;;;;0.10;0.10;;;21.20;99.90;;;;;;5104634;28;20780;-93
2022/09/03 09:03:55;;;;;;;0.10;0.00;;;21.50;99.90;;;;;;5120589;28;20414;-87
2022/09/03 09:06:47;;;;;;;0.10;0.00;;;21.50;99.90;;;;;;5111035;27;20568;-87
2022/09/03 09:09:16;;;;;;;0.10;0.00;;;22.10;99.90;;;;;;5119528;28;20468;-89
2022/09/03 09:12:17;;;;;;;0.10;0.00;;;22.30;99.90;;;;;;5103008;28;20492;-86
2022/09/03 09:15:12;;;;;;;0.10;0.00;;;22.30;99.90;;;;;;5113371;28;20509;-89
2022/09/03 09:17:50;;;;;;;0.10;0.00;;;22.10;99.90;;;;;;5119603;27;20446;-87
2022/09/03 09:20:53;;;;;;;0.10;0.00;;;22.10;99.90;;;;;;5122799;27;20452;-92
2022/09/03 09:23:43;;;;;;;0.10;0.00;;;22.00;99.90;;;;;;5115075;27;20879;-88
2022/09/03 09:26:15;;;;;;;0.10;0.00;;;22.10;99.90;;;;;;5108649;28;20449;-87
2022/09/03 09:28:42;;;;;;;0.10;0.00;;;21.80;99.90;;;;;;5097095;27;20449;-87
2022/09/03 09:31:14;;;;;;;0.10;0.00;;;21.60;99.90;;;;;;5106967;28;20556;-92
2022/09/03 09:33:39;;;;;;;0.10;0.00;;;21.60;99.90;;;;;;5114006;27;20481;-93
2022/09/03 09:36:10;;;;;;;0.10;0.00;;;21.80;99.90;;;;;;5113146;28;20457;-90
2022/09/03 09:38:37;;;;;;;0.10;0.00;;;21.10;99.90;;;;;;5112695;28;20248;-89
2022/09/03 09:41:20;;;;;;;0.10;0.10;;;21.20;99.90;;;;;;5106639;28;20445;-89
2022/09/03 09:43:47;;;;;;;0.10;0.00;;;21.50;99.90;;;;;;5110041;27;20426;-88
2022/09/03 09:46:26;;;;;;;0.10;0.00;;;21.30;99.90;;;;;;5108701;27;20451;-91
2022/09/03 09:48:54;;;;;;;0.10;0.00;;;21.80;99.90;;;;;;5122332;27;20441;-89
2022/09/03 09:51:29;;;;;;;0.10;0.00;;;22.00;99.90;;;;;;5110427;27;20465;-89
2022/09/03 09:54:20;;;;;;;0.10;0.00;;;21.50;99.90;;;;;;5111505;28;20452;-87
2022/09/03 09:56:57;;;;;;;0.10;0.10;;;21.30;99.90;;;;;;5105523;27;20432;-87
2022/09/03 09:59:23;;;;;;;0.10;0.00;;;21.70;99.90;;;;;;5111143;28;20529;-91
2022/09/03 10:01:48;;;;;;;0.10;0.00;;;22.20;99.90;;;;;;5094311;28;20429;-88
2022/09/03 10:04:28;;;;;;;0.10;0.00;;;22.20;99.90;;;;;;5109633;27;20173;-85
2022/09/03 10:06:58;;;;;;;0.10;0.00;;;22.60;99.90;;;;;;5092855;27;20271;-87
2022/09/03 10:09:26;;;;;;;0.10;0.00;;;22.90;99.90;;;;;;5108860;27;21027;-86
2022/09/03 10:12:30;;;;;;;0.10;0.00;;;22.70;99.90;;;;;;5109638;27;20850;-88
2022/09/03 10:15:22;;;;;;;0.10;0.00;;;23.30;99.90;;;;;;5086758;27;20442;-86
2022/09/03 10:18:14;;;;;;;0.10;0.00;;;22.70;98.80;;;;;;5106626;27;20999;-88
2022/09/03 10:21:05;;;;;;;0.10;0.00;;;22.00;99.90;;;;;;5094180;27;20450;-89
2022/09/03 10:23:52;;;;;;;0.10;0.00;;;22.90;99.90;;;;;;5091753;27;20434;-91
2022/09/03 10:26:29;;;;;;;0.10;0.00;;;23.00;99.90;;;;;;5100874;28;20822;-90
2022/09/03 10:29:01;;;;;;;0.10;0.00;;;23.20;99.40;;;;;;5102333;27;20442;-92
2022/09/03 10:31:46;;;;;;;0.10;0.00;;;23.20;99.60;;;;;;5086063;28;20470;-95
2022/09/03 10:34:33;;;;;;;0.10;0.00;;;23.60;99.20;;;;;;5105798;28;20442;-95
2022/09/03 10:37:16;;;;;;;0.10;0.00;;;24.30;99.30;;;;;;5095579;28;20462;-92
2022/09/03 10:40:08;;;;;;;0.10;0.00;;;24.10;97.40;;;;;;5104080;27;20438;-87
2022/09/03 10:42:37;;;;;;;0.10;0.00;;;23.60;97.00;;;;;;5105323;28;20438;-90
2022/09/03 10:45:17;;;;;;;0.10;0.10;;;23.80;98.30;;;;;;5099048;28;20475;-95
2022/09/03 10:48:12;;;;;;;0.10;0.00;;;24.40;98.20;;;;;;5098787;28;20519;-91
2022/09/03 10:50:57;;;;;;;0.10;0.00;;;25.10;96.70;;;;;;5082859;28;20533;-92
2022/09/03 10:53:38;;;;;;;0.10;0.00;;;25.70;96.40;;;;;;5105962;28;20790;-88
2022/09/03 10:56:23;;;;;;;0.10;0.00;;;25.50;97.40;;;;;;5104872;28;20487;-89
2022/09/03 10:59:22;;;;;;;0.10;0.00;;;25.10;95.50;;;;;;5082454;28;20446;-88
2022/09/03 11:01:59;;;;;;;0.10;0.00;;;24.50;96.20;;;;;;5106474;27;20446;-90
2022/09/03 11:04:43;;;;;;;0.10;0.00;;;23.60;97.40;;;;;;5108797;27;20463;-91
2022/09/03 11:07:12;;;;;;;0.10;0.00;;;23.70;96.50;;;;;;5116484;27;20442;-91
2022/09/03 11:09:44;;;;;;;0.10;0.00;;;24.60;96.00;;;;;;5106062;27;20441;-87
2022/09/03 11:12:30;;;;;;;0.10;0.00;;;24.60;96.00;;;;;;5108397;28;21009;-94
2022/09/03 11:15:02;;;;;;;0.10;0.00;;;25.50;96.40;;;;;;5107289;27;20442;-90
2022/09/03 11:17:39;;;;;;;0.10;0.00;;;25.60;93.80;;;;;;5091971;28;20448;-88
2022/09/03 11:20:19;;;;;;;0.10;0.00;;;25.60;92.50;;;;;;5089387;28;20529;-93
2022/09/03 11:22:47;;;;;;;0.10;0.00;;;24.90;92.90;;;;;;5107143;28;20493;-93
2022/09/03 11:25:16;;;;;;;0.10;0.00;;;24.90;94.50;;;;;;5102245;28;20438;-91
2022/09/03 11:27:41;;;;;;;0.10;0.00;;;25.80;93.20;;;;;;5089980;28;20521;-95
2022/09/03 11:30:48;;;;;;;0.10;0.00;;;26.50;92.20;;;;;;5112495;27;20534;-88
2022/09/03 11:33:17;;;;;;;0.10;0.00;;;24.90;92.20;;;;;;5062769;28;20196;-95
2022/09/03 11:35:42;;;;;;;0.10;0.00;;;24.90;91.30;;;;;;5090979;28;20613;-92
2022/09/03 11:38:23;;;;;;;0.10;0.00;;;25.60;91.50;;;;;;5090063;28;20557;-88
2022/09/03 11:40:58;;;;;;;0.10;0.00;;;24.90;90.90;;;;;;5087687;28;20184;-90
2022/09/03 11:43:23;;;;;;;0.10;0.00;;;25.20;91.60;;;;;;5102138;28;20430;-93
2022/09/03 11:46:01;;;;;;;0.10;0.00;;;25.40;92.70;;;;;;5097086;28;20445;-95
2022/09/03 11:48:37;;;;;;;0.10;0.00;;;25.20;92.00;;;;;;5090024;28;20237;-85
2022/09/03 11:51:04;;;;;;;0.10;0.00;;;25.10;92.10;;;;;;5082420;28;20460;-92
2022/09/03 11:53:35;;;;;;;0.10;0.00;;;25.30;92.40;;;;;;5101400;28;20449;-92
2022/09/03 11:56:03;;;;;;;0.10;0.00;;;24.80;93.20;;;;;;5071558;28;20953;-91
2022/09/03 11:58:36;;;;;;;0.10;0.00;;;25.00;91.70;;;;;;5105983;28;20434;-87
2022/09/03 12:01:06;;;;;;;0.10;0.00;;;25.30;90.60;;;;;;5103516;28;21363;-90
2022/09/03 12:03:56;;;;;;;0.10;0.00;;;26.40;90.10;;;;;;5115229;27;20430;-94
2022/09/03 12:06:43;;;;;;;0.10;0.00;;;25.50;90.90;;;;;;5117639;27;20492;-93
2022/09/03 12:09:50;;;;;;;0.10;0.00;;;26.00;91.00;;;;;;5098045;28;20434;-94
2022/09/03 12:12:29;;;;;;;0.10;0.00;;;25.00;91.70;;;;;;5103346;28;20508;-94
2022/09/03 12:15:13;;;;;;;0.10;0.00;;;24.70;91.00;;;;;;5093205;28;20437;-94
2022/09/03 12:20:43;;;;;;;0.10;0.00;;;23.90;91.60;;;;;;5106151;28;21014;-89
2022/09/03 12:23:24;;;;;;;0.10;0.00;;;24.20;92.80;;;;;;5080636;28;20528;-88
2022/09/03 12:25:51;;;;;;;0.10;0.00;;;26.10;90.20;;;;;;5094746;28;20448;-89
2022/09/03 12:28:22;;;;;;;0.10;0.00;;;26.30;89.80;;;;;;5103150;28;20501;-88
2022/09/03 12:30:52;;;;;;;0.10;0.00;;;26.70;90.00;;;;;;5105753;28;20433;-91
2022/09/03 12:33:20;;;;;;;0.10;0.00;;;26.70;90.10;;;;;;5104182;28;20461;-86
2022/09/03 12:36:02;;;;;;;0.10;0.00;;;26.30;89.00;;;;;;5106572;28;20476;-89
2022/09/03 12:38:31;;;;;;;0.10;0.00;;;26.10;88.50;;;;;;5101757;28;20465;-88
2022/09/03 12:40:57;;;;;;;0.10;0.00;;;26.40;89.60;;;;;;5107333;28;20933;-88
2022/09/03 12:43:28;;;;;;;0.10;0.00;;;27.10;87.90;;;;;;5103149;28;20448;-89
2022/09/03 12:45:53;;;;;;;0.10;0.00;;;26.10;88.00;;;;;;5108446;28;20417;-89
2022/09/03 12:48:20;;;;;;;0.10;0.00;;;26.60;88.50;;;;;;5087285;28;20920;-86
2022/09/03 12:50:48;;;;;;;0.10;0.00;;;26.10;87.60;;;;;;5107385;28;20181;-84
2022/09/03 12:53:23;;;;;;;0.10;0.00;;;25.20;87.20;;;;;;5100666;28;20457;-87
2022/09/03 12:55:53;;;;;;;0.10;0.00;;;25.50;90.40;;;;;;5088801;28;20499;-85
2022/09/03 12:58:24;;;;;;;0.10;0.00;;;25.90;89.30;;;;;;5100049;28;20876;-87
2022/09/03 13:01:07;;;;;;;0.10;0.00;;;25.20;87.60;;;;;;5106020;28;20521;-90
2022/09/03 13:03:48;;;;;;;0.10;0.00;;;25.90;88.60;;;;;;5104645;27;20462;-88
2022/09/03 13:06:19;;;;;;;0.10;0.00;;;27.60;84.20;;;;;;5112083;27;20452;-84
2022/09/03 13:08:45;;;;;;;0.10;0.00;;;27.70;82.10;;;;;;5106989;28;20443;-86
2022/09/03 13:11:16;;;;;;;0.10;0.00;;;28.10;83.10;;;;;;5091943;27;20501;-85
2022/09/03 13:13:53;;;;;;;0.10;0.00;;;27.20;84.10;;;;;;5117150;27;20447;-86
2022/09/03 13:16:37;;;;;;;0.10;0.00;;;26.60;84.10;;;;;;5106964;28;20436;-88
2022/09/03 13:19:26;;;;;;;0.10;0.00;;;26.10;86.70;;;;;;5096897;28;20434;-87
2022/09/03 13:21:56;;;;;;;0.10;0.00;;;25.40;85.60;;;;;;5095751;28;20938;-88
2022/09/03 13:24:54;;;;;;;0.10;0.00;;;24.70;89.00;;;;;;5109014;28;20431;-90
2022/09/03 13:27:32;;;;;;;0.20;0.10;;;25.10;89.70;;;;;;5075331;28;21270;-88